Time;durP1;ratioP1;P1;durP2;ratioP2;P2;SDS_P1;SDS_P2;PMS_P1;PMS_P2;Temp;Humidity;BMP_temperature;BMP_pressure;BME280_temperature;BME280_humidity;BME280_pressure;Samples;Min_cycle;Max_cycle;Signal;HPM_P1;HPM_P2
2023/11/26 00:02:24;;;;;;;1.47;1.30;;;;;;;;;;4921840;29;20530;-84
2023/11/26 00:05:28;;;;;;;1.00;0.90;;;;;;;;;;4931635;29;20561;-84
2023/11/26 00:08:32;;;;;;;2.00;1.40;;;;;;;;;;4909796;29;20990;-84
2023/11/26 00:11:37;;;;;;;1.70;1.27;;;;;;;;;;4920827;29;21094;-84
2023/11/26 00:14:41;;;;;;;1.73;1.30;;;;;;;;;;4921708;29;20887;-84
2023/11/26 00:17:46;;;;;;;2.60;1.33;;;;;;;;;;4922119;29;20550;-83
2023/11/26 00:20:49;;;;;;;1.77;1.20;;;;;;;;;;4921516;29;20604;-84
2023/11/26 00:23:54;;;;;;;1.57;1.40;;;;;;;;;;4900119;29;20549;-84
2023/11/26 00:26:58;;;;;;;1.93;1.40;;;;;;;;;;4910232;29;20553;-84
2023/11/26 00:30:04;;;;;;;1.80;1.30;;;;;;;;;;4921507;29;20616;-84
2023/11/26 00:33:10;;;;;;;3.47;1.47;;;;;;;;;;4909815;29;20549;-84
2023/11/26 00:36:15;;;;;;;1.80;1.53;;;;;;;;;;4898471;29;20557;-84
2023/11/26 00:39:19;;;;;;;2.67;1.50;;;;;;;;;;4910575;29;20636;-84
2023/11/26 00:42:23;;;;;;;2.20;1.20;;;;;;;;;;4889054;29;20588;-84
2023/11/26 00:45:29;;;;;;;1.43;1.33;;;;;;;;;;4909536;29;20546;-84
2023/11/26 00:48:33;;;;;;;2.80;1.20;;;;;;;;;;4909794;29;20628;-84
2023/11/26 00:51:37;;;;;;;1.40;1.30;;;;;;;;;;4900031;29;20541;-84
2023/11/26 00:54:41;;;;;;;1.40;1.30;;;;;;;;;;4899540;29;20557;-84
2023/11/26 00:57:45;;;;;;;1.53;1.30;;;;;;;;;;4910264;29;20544;-84
2023/11/26 01:00:49;;;;;;;3.20;1.73;;;;;;;;;;4909692;29;20597;-84
2023/11/26 01:03:54;;;;;;;1.73;1.40;;;;;;;;;;4898815;29;20561;-84
2023/11/26 01:07:00;;;;;;;1.70;1.57;;;;;;;;;;4909134;29;20644;-84
2023/11/26 01:10:05;;;;;;;4.93;1.50;;;;;;;;;;4897964;29;20612;-84
2023/11/26 01:13:09;;;;;;;2.13;1.50;;;;;;;;;;4909017;29;20549;-84
2023/11/26 01:16:14;;;;;;;2.87;1.70;;;;;;;;;;4898296;29;21058;-84
2023/11/26 01:19:18;;;;;;;2.17;1.60;;;;;;;;;;4908402;29;20616;-84
2023/11/26 01:22:24;;;;;;;2.30;1.60;;;;;;;;;;4908298;29;20597;-85
2023/11/26 01:25:28;;;;;;;2.60;1.80;;;;;;;;;;4908059;29;20557;-85
2023/11/26 01:28:32;;;;;;;2.07;1.47;;;;;;;;;;4886723;29;20633;-85
2023/11/26 01:31:36;;;;;;;1.87;1.50;;;;;;;;;;4908341;29;20541;-85
2023/11/26 01:34:40;;;;;;;1.70;1.37;;;;;;;;;;4897893;29;20561;-85
2023/11/26 01:37:44;;;;;;;5.60;1.50;;;;;;;;;;4919006;29;20545;-85
2023/11/26 01:40:49;;;;;;;2.47;1.30;;;;;;;;;;4907790;29;20612;-85
2023/11/26 01:43:53;;;;;;;3.90;1.37;;;;;;;;;;4919168;29;20545;-85
2023/11/26 01:47:01;;;;;;;1.93;1.10;;;;;;;;;;4896982;29;20880;-85
2023/11/26 01:50:19;;;;;;;1.33;1.13;;;;;;;;;;4896988;29;20617;-85
2023/11/26 01:53:25;;;;;;;2.70;1.33;;;;;;;;;;4907357;29;20538;-85
2023/11/26 01:56:30;;;;;;;1.60;1.10;;;;;;;;;;4907082;29;20542;-84
2023/11/26 01:59:34;;;;;;;1.23;1.13;;;;;;;;;;4896396;29;20625;-85
2023/11/26 02:02:40;;;;;;;2.63;1.30;;;;;;;;;;4897005;29;20597;-85
2023/11/26 02:05:46;;;;;;;1.70;1.30;;;;;;;;;;4895439;29;20905;-85
2023/11/26 02:08:51;;;;;;;4.97;1.50;;;;;;;;;;4917780;29;20616;-85
2023/11/26 02:11:55;;;;;;;3.63;1.20;;;;;;;;;;4919079;29;20888;-85
2023/11/26 02:14:59;;;;;;;3.40;1.30;;;;;;;;;;4918896;29;21062;-85
2023/11/26 02:18:04;;;;;;;1.00;0.90;;;;;;;;;;4918643;29;20621;-85
2023/11/26 02:21:12;;;;;;;4.30;1.27;;;;;;;;;;4896507;29;20601;-85
2023/11/26 02:24:24;;;;;;;2.90;1.23;;;;;;;;;;4906703;29;20533;-85
2023/11/26 02:27:29;;;;;;;1.70;1.13;;;;;;;;;;4896554;29;20546;-85
2023/11/26 02:30:34;;;;;;;3.30;1.53;;;;;;;;;;4906975;29;20541;-85
2023/11/26 02:33:38;;;;;;;3.80;1.20;;;;;;;;;;4907222;29;21102;-85
2023/11/26 02:36:42;;;;;;;3.47;1.40;;;;;;;;;;4917768;29;20545;-85
2023/11/26 02:39:46;;;;;;;1.73;1.50;;;;;;;;;;4906480;29;20644;-85
2023/11/26 02:42:51;;;;;;;2.00;1.70;;;;;;;;;;4906565;29;20612;-85
2023/11/26 02:45:57;;;;;;;1.80;1.57;;;;;;;;;;4918148;29;20569;-85
2023/11/26 02:49:01;;;;;;;2.67;1.90;;;;;;;;;;4896060;29;20621;-85
2023/11/26 02:52:05;;;;;;;3.77;2.70;;;;;;;;;;4906651;29;20541;-85
2023/11/26 02:55:09;;;;;;;3.97;2.10;;;;;;;;;;4906931;29;21090;-85
2023/11/26 02:58:13;;;;;;;6.40;2.30;;;;;;;;;;4918231;29;20628;-85
2023/11/26 03:01:18;;;;;;;2.83;2.13;;;;;;;;;;4906773;29;20597;-85
2023/11/26 03:04:23;;;;;;;3.93;2.40;;;;;;;;;;4895963;29;20542;-85
2023/11/26 03:07:27;;;;;;;3.70;2.37;;;;;;;;;;4906979;29;20549;-85
2023/11/26 03:13:58;;;;;;;7.77;2.73;;;;;;;;;;4895812;29;20541;-85
2023/11/26 03:17:04;;;;;;;5.40;2.83;;;;;;;;;;4909462;29;20545;-85
2023/11/26 03:20:08;;;;;;;4.10;2.60;;;;;;;;;;4899504;29;20950;-85
2023/11/26 03:23:16;;;;;;;4.03;2.90;;;;;;;;;;4909653;29;20597;-85
2023/11/26 03:26:25;;;;;;;6.23;2.77;;;;;;;;;;4899184;29;20554;-85
2023/11/26 03:29:29;;;;;;;3.90;2.70;;;;;;;;;;4898855;29;20632;-85
2023/11/26 03:32:34;;;;;;;3.63;2.80;;;;;;;;;;4910007;29;20557;-85
2023/11/26 03:35:39;;;;;;;5.07;3.10;;;;;;;;;;4931925;29;20545;-85
2023/11/26 03:38:42;;;;;;;5.53;2.50;;;;;;;;;;4898974;29;20643;-85
2023/11/26 03:41:48;;;;;;;6.93;3.33;;;;;;;;;;4920466;29;20597;-85
2023/11/26 03:44:52;;;;;;;3.57;2.83;;;;;;;;;;4898225;29;20916;-85
2023/11/26 03:47:57;;;;;;;3.67;2.60;;;;;;;;;;4909762;29;21070;-85
2023/11/26 03:51:01;;;;;;;6.33;3.20;;;;;;;;;;4898756;29;20538;-85
2023/11/26 03:54:05;;;;;;;4.30;3.10;;;;;;;;;;4909161;29;20541;-84
2023/11/26 03:57:11;;;;;;;4.10;2.80;;;;;;;;;;4920526;29;20545;-85
2023/11/26 04:00:16;;;;;;;6.57;3.27;;;;;;;;;;4898728;29;20541;-85
2023/11/26 04:03:20;;;;;;;5.27;2.73;;;;;;;;;;4920677;29;20617;-85
2023/11/26 04:06:24;;;;;;;5.53;3.03;;;;;;;;;;4898462;29;20549;-85
2023/11/26 04:09:29;;;;;;;3.93;3.00;;;;;;;;;;4909153;29;20620;-85
2023/11/26 04:12:33;;;;;;;6.37;3.13;;;;;;;;;;4898401;29;20534;-85
2023/11/26 04:15:46;;;;;;;3.33;2.30;;;;;;;;;;4909687;29;20545;-85
2023/11/26 04:18:50;;;;;;;5.77;2.80;;;;;;;;;;4898293;29;20620;-85
2023/11/26 04:21:54;;;;;;;3.80;2.57;;;;;;;;;;4920040;29;20602;-85
2023/11/26 04:24:58;;;;;;;3.47;2.57;;;;;;;;;;4909187;29;20557;-85
2023/11/26 04:28:03;;;;;;;6.67;2.73;;;;;;;;;;4919500;29;21002;-85
2023/11/26 04:31:07;;;;;;;4.07;2.40;;;;;;;;;;4898516;29;20549;-85
2023/11/26 04:34:11;;;;;;;5.47;2.50;;;;;;;;;;4909021;29;20557;-85
2023/11/26 04:37:15;;;;;;;3.40;2.33;;;;;;;;;;4909351;29;20542;-85
2023/11/26 04:40:20;;;;;;;4.57;2.73;;;;;;;;;;4920103;29;20553;-85
2023/11/26 04:43:24;;;;;;;4.83;2.90;;;;;;;;;;4919870;29;21149;-85
2023/11/26 04:46:28;;;;;;;4.77;2.73;;;;;;;;;;4920410;29;20541;-85
2023/11/26 04:49:32;;;;;;;5.07;2.63;;;;;;;;;;4887012;29;20609;-85
2023/11/26 04:52:36;;;;;;;6.07;2.67;;;;;;;;;;4908598;29;20545;-85
2023/11/26 04:55:40;;;;;;;3.90;2.90;;;;;;;;;;4908730;29;20557;-85
2023/11/26 04:58:45;;;;;;;7.27;2.80;;;;;;;;;;4908356;29;20621;-85
2023/11/26 05:01:54;;;;;;;4.17;2.30;;;;;;;;;;4919577;29;20601;-85
2023/11/26 05:04:58;;;;;;;3.47;2.60;;;;;;;;;;4920049;29;20566;-85
2023/11/26 05:08:04;;;;;;;4.33;2.47;;;;;;;;;;4919902;29;20542;-85
2023/11/26 05:11:10;;;;;;;5.13;2.80;;;;;;;;;;4919904;29;20566;-85
2023/11/26 05:14:14;;;;;;;7.23;3.00;;;;;;;;;;4931017;29;20880;-85
2023/11/26 05:17:18;;;;;;;4.00;2.63;;;;;;;;;;4920593;29;20545;-85
2023/11/26 05:20:22;;;;;;;4.53;2.93;;;;;;;;;;4908548;29;20561;-85
2023/11/26 05:23:27;;;;;;;3.33;3.03;;;;;;;;;;4920378;29;20604;-85
2023/11/26 05:26:32;;;;;;;6.47;3.07;;;;;;;;;;4920167;29;20542;-85
2023/11/26 05:29:36;;;;;;;4.50;2.57;;;;;;;;;;4929943;29;20620;-85
2023/11/26 05:32:40;;;;;;;3.80;2.80;;;;;;;;;;4920307;29;20553;-85
2023/11/26 05:35:44;;;;;;;4.40;2.60;;;;;;;;;;4920020;29;21074;-85
2023/11/26 05:38:48;;;;;;;3.27;2.57;;;;;;;;;;4919144;29;20991;-85
2023/11/26 05:41:52;;;;;;;4.03;2.67;;;;;;;;;;4920020;29;20932;-85
2023/11/26 05:44:57;;;;;;;4.27;2.77;;;;;;;;;;4897444;29;20549;-84
2023/11/26 05:48:01;;;;;;;4.50;2.77;;;;;;;;;;4919369;29;20564;-84
2023/11/26 05:51:06;;;;;;;4.33;2.73;;;;;;;;;;4909161;29;20545;-84
2023/11/26 05:54:10;;;;;;;3.80;2.97;;;;;;;;;;4918706;29;20553;-84
2023/11/26 05:57:14;;;;;;;5.53;2.60;;;;;;;;;;4919673;29;20565;-84
2023/11/26 06:00:18;;;;;;;4.77;2.97;;;;;;;;;;4898105;29;20546;-84
2023/11/26 06:03:22;;;;;;;3.97;2.60;;;;;;;;;;4908742;29;20593;-84
2023/11/26 06:06:26;;;;;;;3.57;2.87;;;;;;;;;;4907911;29;21098;-84
2023/11/26 06:09:30;;;;;;;8.33;3.40;;;;;;;;;;4907816;29;20624;-84
2023/11/26 06:12:35;;;;;;;3.90;3.13;;;;;;;;;;4897629;29;20542;-84
2023/11/26 06:15:39;;;;;;;5.37;3.33;;;;;;;;;;4919220;29;20546;-84
2023/11/26 06:18:43;;;;;;;5.93;3.43;;;;;;;;;;4886781;29;20632;-84
2023/11/26 06:21:48;;;;;;;7.17;3.80;;;;;;;;;;4919582;29;20546;-84
2023/11/26 06:24:52;;;;;;;6.83;3.83;;;;;;;;;;4908144;29;21118;-84
2023/11/26 06:27:56;;;;;;;6.73;3.47;;;;;;;;;;4919256;29;20567;-84
2023/11/26 06:31:00;;;;;;;3.03;2.67;;;;;;;;;;4908522;29;20537;-84
2023/11/26 06:34:05;;;;;;;6.40;3.30;;;;;;;;;;4908659;29;20557;-84
2023/11/26 06:37:09;;;;;;;6.03;3.00;;;;;;;;;;4920381;29;21047;-84
2023/11/26 06:40:13;;;;;;;3.90;2.77;;;;;;;;;;4919528;29;20562;-84
2023/11/26 06:43:18;;;;;;;7.47;3.33;;;;;;;;;;4897597;29;20604;-84
2023/11/26 06:46:23;;;;;;;6.97;2.87;;;;;;;;;;4908198;29;20541;-84
2023/11/26 06:49:28;;;;;;;5.67;3.10;;;;;;;;;;4896970;29;20617;-84
2023/11/26 06:52:33;;;;;;;4.70;3.33;;;;;;;;;;4911734;29;20541;-84
2023/11/26 06:55:37;;;;;;;4.47;3.07;;;;;;;;;;4923827;29;20561;-84
2023/11/26 06:58:44;;;;;;;20.77;11.23;;;;;;;;;;4922990;29;20620;-84
2023/11/26 07:01:48;;;;;;;5.67;4.17;;;;;;;;;;4923050;29;20545;-84
2023/11/26 07:04:52;;;;;;;7.00;3.73;;;;;;;;;;4922587;29;20549;-84
2023/11/26 07:07:56;;;;;;;7.77;5.20;;;;;;;;;;4900852;29;20545;-84
2023/11/26 07:11:00;;;;;;;5.90;4.20;;;;;;;;;;4911773;29;20560;-84
2023/11/26 07:14:06;;;;;;;16.07;10.63;;;;;;;;;;4923305;29;20541;-84
2023/11/26 07:17:13;;;;;;;6.63;4.30;;;;;;;;;;4922780;29;20541;-84
2023/11/26 07:20:17;;;;;;;7.47;4.67;;;;;;;;;;4923438;29;20561;-84
2023/11/26 07:23:21;;;;;;;7.27;3.90;;;;;;;;;;4911439;29;20601;-84
2023/11/26 07:26:26;;;;;;;6.83;3.93;;;;;;;;;;4923060;29;20545;-84
2023/11/26 07:29:34;;;;;;;7.77;3.67;;;;;;;;;;4901251;29;20616;-86
2023/11/26 07:32:41;;;;;;;5.73;4.00;;;;;;;;;;4922728;29;20545;-84
2023/11/26 07:35:47;;;;;;;5.77;3.50;;;;;;;;;;4923486;29;20541;-85
2023/11/26 07:38:53;;;;;;;10.27;5.07;;;;;;;;;;4910906;29;21216;-84
2023/11/26 07:41:57;;;;;;;8.43;4.10;;;;;;;;;;4900008;29;20757;-85
2023/11/26 07:45:01;;;;;;;6.30;4.47;;;;;;;;;;4911028;29;21013;-84
2023/11/26 07:48:07;;;;;;;7.80;4.43;;;;;;;;;;4889724;29;20612;-84
2023/11/26 07:51:13;;;;;;;8.47;4.97;;;;;;;;;;4921502;29;20553;-84
2023/11/26 07:54:17;;;;;;;8.67;4.20;;;;;;;;;;4922336;29;20553;-84
2023/11/26 07:57:21;;;;;;;7.67;4.50;;;;;;;;;;4921985;29;20545;-85
2023/11/26 08:00:26;;;;;;;9.57;5.20;;;;;;;;;;4923305;29;20549;-83
2023/11/26 08:03:34;;;;;;;6.30;3.90;;;;;;;;;;4922585;29;20592;-84
2023/11/26 08:06:40;;;;;;;17.43;10.77;;;;;;;;;;4911646;29;20542;-84
2023/11/26 08:09:45;;;;;;;16.97;10.03;;;;;;;;;;4922449;29;20967;-84
2023/11/26 08:12:50;;;;;;;9.90;6.90;;;;;;;;;;4909694;29;20545;-84
2023/11/26 08:15:57;;;;;;;6.63;4.13;;;;;;;;;;4922287;29;20541;-84
2023/11/26 08:19:06;;;;;;;6.23;3.50;;;;;;;;;;4922387;29;20620;-83
2023/11/26 08:22:11;;;;;;;5.80;3.77;;;;;;;;;;4910711;29;20538;-85
2023/11/26 08:25:36;;;;;;;6.30;4.27;;;;;;;;;;4921144;29;20900;-83
2023/11/26 08:28:42;;;;;;;3.90;3.20;;;;;;;;;;4920919;29;20740;-84
2023/11/26 08:31:48;;;;;;;6.80;3.97;;;;;;;;;;4921493;29;20545;-84
2023/11/26 08:34:55;;;;;;;5.83;4.30;;;;;;;;;;4920613;29;20557;-84
2023/11/26 08:38:02;;;;;;;4.57;3.70;;;;;;;;;;4919324;29;20596;-85
2023/11/26 08:41:10;;;;;;;7.20;4.03;;;;;;;;;;4888257;29;20545;-85
2023/11/26 08:44:14;;;;;;;6.37;3.80;;;;;;;;;;4921126;29;20608;-85
2023/11/26 08:47:20;;;;;;;6.27;4.50;;;;;;;;;;4930540;29;20549;-85
2023/11/26 08:50:24;;;;;;;7.73;4.33;;;;;;;;;;4908435;29;20550;-86
2023/11/26 08:53:29;;;;;;;6.37;4.10;;;;;;;;;;4920025;29;21058;-85
2023/11/26 08:56:35;;;;;;;4.23;3.03;;;;;;;;;;4920892;29;20549;-84
2023/11/26 08:59:39;;;;;;;5.17;4.20;;;;;;;;;;4919689;29;20632;-86
2023/11/26 09:02:43;;;;;;;6.47;3.77;;;;;;;;;;4907680;29;20557;-86
2023/11/26 09:05:48;;;;;;;4.17;3.17;;;;;;;;;;4907280;29;21086;-86
2023/11/26 09:08:52;;;;;;;4.43;3.50;;;;;;;;;;4906668;29;20622;-86
2023/11/26 09:11:56;;;;;;;4.30;3.40;;;;;;;;;;4918183;29;20549;-86
2023/11/26 09:15:00;;;;;;;5.27;3.73;;;;;;;;;;4916909;29;20942;-86
2023/11/26 09:18:05;;;;;;;6.27;3.50;;;;;;;;;;4917598;29;20216;-86
2023/11/26 09:21:10;;;;;;;4.77;3.40;;;;;;;;;;4918275;29;21047;-85
2023/11/26 09:24:14;;;;;;;4.83;3.53;;;;;;;;;;4907255;29;20600;-85
2023/11/26 09:27:19;;;;;;;6.33;3.30;;;;;;;;;;4907361;29;20197;-85
2023/11/26 09:30:23;;;;;;;10.43;6.60;;;;;;;;;;4896757;29;20545;-85
2023/11/26 09:33:27;;;;;;;13.93;8.23;;;;;;;;;;4896374;29;20534;-85
2023/11/26 09:36:31;;;;;;;7.73;4.20;;;;;;;;;;4918169;29;20549;-85
2023/11/26 09:39:35;;;;;;;3.70;3.30;;;;;;;;;;4917574;29;20650;-86
2023/11/26 09:42:44;;;;;;;6.17;3.60;;;;;;;;;;4917229;29;20545;-86
2023/11/26 09:45:48;;;;;;;6.80;3.03;;;;;;;;;;4917790;29;20185;-85
2023/11/26 09:48:53;;;;;;;6.20;3.97;;;;;;;;;;4895767;29;20629;-85
2023/11/26 09:51:57;;;;;;;6.40;3.53;;;;;;;;;;4917428;29;20188;-85
2023/11/26 09:55:03;;;;;;;4.90;3.50;;;;;;;;;;4918520;29;20181;-84
2023/11/26 09:58:07;;;;;;;6.57;3.20;;;;;;;;;;4917931;29;20228;-84
2023/11/26 10:01:11;;;;;;;7.20;3.67;;;;;;;;;;4906418;29;20181;-85
2023/11/26 10:04:15;;;;;;;3.80;3.13;;;;;;;;;;4918896;29;20220;-85
2023/11/26 10:07:36;;;;;;;5.90;3.27;;;;;;;;;;4918869;29;20188;-79
2023/11/26 10:10:49;;;;;;;8.70;3.53;;;;;;;;;;4919553;29;20550;-81
2023/11/26 10:13:54;;;;;;;3.30;3.00;;;;;;;;;;4918863;29;20181;-80
2023/11/26 10:17:11;;;;;;;4.13;3.07;;;;;;;;;;4918046;29;20196;-81
2023/11/26 10:20:17;;;;;;;7.20;4.23;;;;;;;;;;4919442;29;20185;-81
2023/11/26 10:23:25;;;;;;;10.67;3.90;;;;;;;;;;4919175;29;20213;-84
2023/11/26 10:26:31;;;;;;;6.07;3.70;;;;;;;;;;4918381;29;20563;-82
2023/11/26 10:29:42;;;;;;;7.57;3.77;;;;;;;;;;4906956;29;20221;-85
2023/11/26 10:32:56;;;;;;;5.77;3.63;;;;;;;;;;4907918;29;20181;-84
2023/11/26 10:36:00;;;;;;;5.13;4.03;;;;;;;;;;4930244;29;20510;-84
2023/11/26 10:39:09;;;;;;;5.73;4.03;;;;;;;;;;4919621;29;20232;-84
2023/11/26 10:42:14;;;;;;;9.60;5.37;;;;;;;;;;4897466;29;20196;-84
2023/11/26 10:45:19;;;;;;;88.90;39.03;;;;;;;;;;4919495;29;20601;-84
2023/11/26 10:48:25;;;;;;;31.57;13.67;;;;;;;;;;4919108;29;20224;-83
2023/11/26 10:51:33;;;;;;;57.93;20.57;;;;;;;;;;4919490;29;20631;-84
2023/11/26 10:54:56;;;;;;;150.00;44.37;;;;;;;;;;4896470;29;20181;-84
2023/11/26 10:58:19;;;;;;;103.13;32.87;;;;;;;;;;4929209;29;20192;-84
2023/11/26 11:01:24;;;;;;;40.23;20.97;;;;;;;;;;4929252;29;20192;-84
2023/11/26 11:04:30;;;;;;;12.20;7.97;;;;;;;;;;4918559;29;20209;-84
2023/11/26 11:07:35;;;;;;;11.10;7.07;;;;;;;;;;4930466;29;20189;-84
2023/11/26 11:10:47;;;;;;;8.27;6.03;;;;;;;;;;4922820;29;20193;-84
2023/11/26 11:13:52;;;;;;;7.90;5.77;;;;;;;;;;4900240;29;20189;-84
2023/11/26 11:16:56;;;;;;;7.43;5.87;;;;;;;;;;4933404;29;20185;-84
2023/11/26 11:20:02;;;;;;;8.73;5.20;;;;;;;;;;4922997;29;20716;-84
2023/11/26 11:23:30;;;;;;;8.30;5.50;;;;;;;;;;4922973;29;20185;-84
2023/11/26 11:26:47;;;;;;;5.93;4.70;;;;;;;;;;4910368;29;20185;-84
2023/11/26 11:29:51;;;;;;;6.43;5.17;;;;;;;;;;4924599;29;20221;-84
2023/11/26 11:33:09;;;;;;;9.13;4.80;;;;;;;;;;4911749;29;20188;-84
2023/11/26 11:36:44;;;;;;;6.90;4.60;;;;;;;;;;4924027;29;20181;-85
2023/11/26 11:39:53;;;;;;;7.53;4.40;;;;;;;;;;4936672;29;20228;-84
2023/11/26 11:43:15;;;;;;;5.00;4.17;;;;;;;;;;4925163;29;20189;-84
2023/11/26 11:46:28;;;;;;;5.47;4.40;;;;;;;;;;4924972;29;20178;-84
2023/11/26 11:49:44;;;;;;;7.13;3.90;;;;;;;;;;4924247;29;20222;-84
2023/11/26 11:53:00;;;;;;;4.73;3.83;;;;;;;;;;4912771;29;20181;-85
2023/11/26 11:56:09;;;;;;;4.13;3.10;;;;;;;;;;4925147;29;20185;-85
2023/11/26 11:59:13;;;;;;;5.30;3.03;;;;;;;;;;4913070;29;20213;-85
2023/11/26 12:02:19;;;;;;;5.03;3.10;;;;;;;;;;4913034;29;20188;-85
2023/11/26 12:05:27;;;;;;;7.47;2.80;;;;;;;;;;4912245;29;20217;-85
2023/11/26 12:08:31;;;;;;;6.00;4.13;;;;;;;;;;4924269;29;20225;-85
2023/11/26 12:11:49;;;;;;;32.60;14.93;;;;;;;;;;4911712;29;20546;-85
2023/11/26 12:14:54;;;;;;;13.43;9.07;;;;;;;;;;4921633;29;20185;-85
2023/11/26 12:17:59;;;;;;;5.03;3.70;;;;;;;;;;4910412;29;20188;-85
2023/11/26 12:21:03;;;;;;;6.00;2.50;;;;;;;;;;4921960;29;20635;-85
2023/11/26 12:24:23;;;;;;;2.27;2.03;;;;;;;;;;4922909;29;20208;-85
2023/11/26 12:27:31;;;;;;;2.80;2.33;;;;;;;;;;4922418;29;20570;-84
2023/11/26 12:30:36;;;;;;;4.93;2.20;;;;;;;;;;4922411;29;20185;-85
2023/11/26 12:33:45;;;;;;;2.57;2.20;;;;;;;;;;4923302;29;20538;-84
2023/11/26 12:36:50;;;;;;;2.47;2.20;;;;;;;;;;4922937;29;20527;-84
2023/11/26 12:39:55;;;;;;;4.77;2.43;;;;;;;;;;4922575;29;20232;-84
2023/11/26 12:42:59;;;;;;;4.10;2.60;;;;;;;;;;4933792;29;20185;-84
2023/11/26 12:46:11;;;;;;;4.77;2.33;;;;;;;;;;4922923;29;20208;-84
2023/11/26 12:49:17;;;;;;;3.87;2.10;;;;;;;;;;4910451;29;20563;-84
2023/11/26 12:52:22;;;;;;;3.20;2.40;;;;;;;;;;4922704;29;20185;-84
2023/11/26 12:55:26;;;;;;;4.73;2.30;;;;;;;;;;4921982;29;20185;-84
2023/11/26 12:58:31;;;;;;;4.37;2.20;;;;;;;;;;4922220;29;20224;-84
2023/11/26 13:01:35;;;;;;;3.83;2.30;;;;;;;;;;4922927;29;20185;-85
2023/11/26 13:04:40;;;;;;;2.77;2.33;;;;;;;;;;4922716;29;20213;-85
2023/11/26 13:07:45;;;;;;;4.87;4.00;;;;;;;;;;4921969;29;20185;-85
2023/11/26 13:10:53;;;;;;;5.17;3.47;;;;;;;;;;4923746;29;20184;-84
2023/11/26 13:14:02;;;;;;;4.20;3.07;;;;;;;;;;4901312;29;20181;-85
2023/11/26 13:17:06;;;;;;;11.63;6.07;;;;;;;;;;4923308;29;20523;-85
2023/11/26 13:20:14;;;;;;;10.63;5.97;;;;;;;;;;4921117;29;20185;-85
2023/11/26 13:23:20;;;;;;;6.27;3.60;;;;;;;;;;4909837;29;20185;-85
2023/11/26 13:26:24;;;;;;;6.30;4.77;;;;;;;;;;4920035;29;20179;-85
2023/11/26 13:29:28;;;;;;;7.03;6.07;;;;;;;;;;4909197;29;20229;-85
2023/11/26 13:32:34;;;;;;;6.40;4.57;;;;;;;;;;4898244;29;20193;-85
2023/11/26 13:35:38;;;;;;;3.70;3.10;;;;;;;;;;4919515;29;20172;-85
2023/11/26 13:38:42;;;;;;;8.20;5.10;;;;;;;;;;4908730;29;20228;-85
2023/11/26 13:41:46;;;;;;;7.97;4.93;;;;;;;;;;4920106;29;20195;-86
2023/11/26 13:44:50;;;;;;;25.40;17.83;;;;;;;;;;4897075;29;20212;-85
2023/11/26 13:47:55;;;;;;;19.87;12.70;;;;;;;;;;4907793;29;20184;-86
2023/11/26 13:50:59;;;;;;;24.00;14.60;;;;;;;;;;4907391;29;20193;-85
2023/11/26 13:54:03;;;;;;;9.00;5.93;;;;;;;;;;4897280;29;20185;-85
2023/11/26 13:57:07;;;;;;;21.10;15.03;;;;;;;;;;4908139;29;20188;-85
2023/11/26 14:00:11;;;;;;;22.10;14.23;;;;;;;;;;4920398;29;20651;-85
2023/11/26 14:03:16;;;;;;;12.07;9.23;;;;;;;;;;4921576;29;20185;-85
2023/11/26 14:06:21;;;;;;;10.43;5.80;;;;;;;;;;4920814;29;20209;-85
2023/11/26 14:09:25;;;;;;;5.57;4.43;;;;;;;;;;4921412;29;20216;-85
2023/11/26 14:12:28;;;;;;;6.50;5.83;;;;;;;;;;4899449;29;20546;-85
2023/11/26 14:15:33;;;;;;;5.70;4.40;;;;;;;;;;4922450;29;20181;-85
2023/11/26 14:18:37;;;;;;;5.53;4.20;;;;;;;;;;4899139;29;20220;-85
2023/11/26 14:21:41;;;;;;;6.27;4.07;;;;;;;;;;4920526;29;20185;-85
2023/11/26 14:24:45;;;;;;;4.63;3.80;;;;;;;;;;4919660;29;20212;-85
2023/11/26 14:27:51;;;;;;;5.40;3.80;;;;;;;;;;4919372;29;20369;-85
2023/11/26 14:30:55;;;;;;;4.67;4.00;;;;;;;;;;4919025;29;20181;-85
2023/11/26 14:33:59;;;;;;;12.63;10.13;;;;;;;;;;4907808;29;20184;-85
2023/11/26 14:37:04;;;;;;;15.17;10.30;;;;;;;;;;4907972;29;20626;-85
2023/11/26 14:40:12;;;;;;;30.80;21.40;;;;;;;;;;4918371;29;20232;-85
2023/11/26 14:43:16;;;;;;;12.03;9.00;;;;;;;;;;4896649;29;20177;-85
2023/11/26 14:46:20;;;;;;;7.93;7.13;;;;;;;;;;4928303;29;20216;-85
2023/11/26 14:49:24;;;;;;;6.13;5.17;;;;;;;;;;4916911;29;20709;-85
2023/11/26 14:52:29;;;;;;;8.03;5.83;;;;;;;;;;4917945;29;20545;-85
2023/11/26 14:55:33;;;;;;;16.30;12.73;;;;;;;;;;4895313;29;20185;-86
2023/11/26 14:58:37;;;;;;;13.57;8.40;;;;;;;;;;4906385;29;20220;-85
2023/11/26 15:01:42;;;;;;;6.83;4.93;;;;;;;;;;4894998;29;20185;-85
2023/11/26 15:04:49;;;;;;;6.40;4.70;;;;;;;;;;4916666;29;20208;-85
2023/11/26 15:07:53;;;;;;;7.17;5.10;;;;;;;;;;4906040;29;20564;-85
2023/11/26 15:10:57;;;;;;;5.90;4.83;;;;;;;;;;4916456;29;20189;-85
2023/11/26 15:14:06;;;;;;;6.87;5.20;;;;;;;;;;4920481;29;20185;-85
2023/11/26 15:17:10;;;;;;;6.10;4.40;;;;;;;;;;4920950;29;20185;-85
2023/11/26 15:20:14;;;;;;;5.97;4.70;;;;;;;;;;4920938;29;20542;-86
2023/11/26 15:23:18;;;;;;;6.87;4.90;;;;;;;;;;4920014;29;20902;-86
2023/11/26 15:26:22;;;;;;;7.53;4.67;;;;;;;;;;4898383;29;20685;-86
2023/11/26 15:29:27;;;;;;;6.10;4.07;;;;;;;;;;4919588;29;20616;-86
2023/11/26 15:32:31;;;;;;;12.60;8.77;;;;;;;;;;4909193;29;20541;-86
2023/11/26 15:35:35;;;;;;;13.10;9.70;;;;;;;;;;4920693;29;20181;-86
2023/11/26 15:38:39;;;;;;;8.90;6.47;;;;;;;;;;4920021;29;20643;-86
2023/11/26 15:41:44;;;;;;;18.53;11.80;;;;;;;;;;4898205;29;20193;-86
2023/11/26 15:44:48;;;;;;;10.20;7.53;;;;;;;;;;4898133;29;20184;-86
2023/11/26 15:47:53;;;;;;;6.80;5.10;;;;;;;;;;4897818;29;20189;-86
2023/11/26 15:50:57;;;;;;;6.90;3.67;;;;;;;;;;4919615;29;20549;-86
2023/11/26 15:54:01;;;;;;;9.27;4.60;;;;;;;;;;4920429;29;20537;-86
2023/11/26 15:57:05;;;;;;;6.30;4.60;;;;;;;;;;4920149;29;20546;-86
2023/11/26 16:00:12;;;;;;;7.07;4.63;;;;;;;;;;4920337;29;20224;-86
2023/11/26 16:03:17;;;;;;;7.57;4.07;;;;;;;;;;4920471;29;20549;-86
2023/11/26 16:06:21;;;;;;;6.17;4.13;;;;;;;;;;4925209;29;20592;-85
2023/11/26 16:09:25;;;;;;;6.70;4.50;;;;;;;;;;4927462;29;20630;-85
2023/11/26 16:12:29;;;;;;;5.50;4.20;;;;;;;;;;4929218;29;20549;-85
2023/11/26 16:15:33;;;;;;;6.17;4.50;;;;;;;;;;4929468;29;20530;-85
2023/11/26 16:18:38;;;;;;;6.73;4.57;;;;;;;;;;4924385;29;20617;-85
2023/11/26 16:21:42;;;;;;;8.17;5.20;;;;;;;;;;4901754;29;20918;-85
2023/11/26 16:24:46;;;;;;;6.43;4.37;;;;;;;;;;4903899;29;20930;-85
2023/11/26 16:27:50;;;;;;;27.57;19.00;;;;;;;;;;4927201;29;20534;-85
2023/11/26 16:30:54;;;;;;;9.30;5.73;;;;;;;;;;4924038;29;20553;-86
2023/11/26 16:33:59;;;;;;;9.27;5.27;;;;;;;;;;4923691;29;20185;-85
2023/11/26 16:37:03;;;;;;;7.93;4.80;;;;;;;;;;4912940;29;20185;-84
2023/11/26 16:40:07;;;;;;;8.33;5.47;;;;;;;;;;4900669;29;20644;-84
2023/11/26 16:43:11;;;;;;;8.73;5.37;;;;;;;;;;4923909;29;20550;-85
2023/11/26 16:46:17;;;;;;;10.23;6.43;;;;;;;;;;4924756;29;20597;-85
2023/11/26 16:49:21;;;;;;;7.47;5.00;;;;;;;;;;4922560;29;20616;-85
2023/11/26 16:52:25;;;;;;;7.30;4.80;;;;;;;;;;4921858;29;20543;-85
2023/11/26 16:55:29;;;;;;;8.67;5.23;;;;;;;;;;4924193;29;20545;-84
2023/11/26 16:58:34;;;;;;;11.20;5.50;;;;;;;;;;4924143;29;20625;-85
2023/11/26 17:01:39;;;;;;;9.23;5.50;;;;;;;;;;4912151;29;20549;-84
2023/11/26 17:04:43;;;;;;;8.37;6.00;;;;;;;;;;4925435;29;20542;-84
2023/11/26 17:07:47;;;;;;;10.33;6.03;;;;;;;;;;4912820;29;20522;-85
2023/11/26 17:10:51;;;;;;;14.43;10.87;;;;;;;;;;4923762;29;20565;-84
2023/11/26 17:13:55;;;;;;;14.40;11.30;;;;;;;;;;4924309;29;20181;-84
2023/11/26 17:17:00;;;;;;;14.30;9.67;;;;;;;;;;4924863;29;21084;-84
2023/11/26 17:20:07;;;;;;;8.33;6.10;;;;;;;;;;4924554;29;20220;-84
2023/11/26 17:23:13;;;;;;;11.30;6.00;;;;;;;;;;4924985;29;20572;-84
2023/11/26 17:26:21;;;;;;;6.17;4.40;;;;;;;;;;4923491;29;20609;-84
2023/11/26 17:29:25;;;;;;;6.20;4.90;;;;;;;;;;4925037;29;20220;-84
2023/11/26 17:32:29;;;;;;;6.20;4.40;;;;;;;;;;4903881;29;20541;-84
2023/11/26 17:35:34;;;;;;;7.33;4.90;;;;;;;;;;4935763;29;20545;-84
2023/11/26 17:38:38;;;;;;;5.63;4.37;;;;;;;;;;4924657;29;21216;-84
2023/11/26 17:41:43;;;;;;;6.03;4.77;;;;;;;;;;4977694;23;20683;-84
2023/11/26 17:44:47;;;;;;;7.17;4.63;;;;;;;;;;4942115;29;20553;-84
2023/11/26 17:47:51;;;;;;;6.97;4.40;;;;;;;;;;4942386;29;20172;-85
2023/11/26 17:50:55;;;;;;;6.73;4.90;;;;;;;;;;4929994;29;21197;-84
2023/11/26 17:53:59;;;;;;;8.70;6.70;;;;;;;;;;4921772;29;20545;-84
2023/11/26 17:57:03;;;;;;;7.90;5.87;;;;;;;;;;4921704;29;20537;-86
2023/11/26 18:00:08;;;;;;;9.93;5.93;;;;;;;;;;4922020;29;20955;-87
2023/11/26 18:03:18;;;;;;;10.30;7.07;;;;;;;;;;4922194;29;20537;-86
2023/11/26 18:06:22;;;;;;;10.77;5.53;;;;;;;;;;4924233;29;20601;-85
2023/11/26 18:09:26;;;;;;;9.30;5.97;;;;;;;;;;4925734;29;21110;-86
2023/11/26 18:12:30;;;;;;;9.20;5.40;;;;;;;;;;4924623;29;20549;-87
2023/11/26 18:15:34;;;;;;;9.60;5.77;;;;;;;;;;4925041;29;20541;-86
2023/11/26 18:18:39;;;;;;;6.83;5.07;;;;;;;;;;4924824;29;20545;-87
2023/11/26 18:21:44;;;;;;;8.67;5.13;;;;;;;;;;4914199;29;20625;-86
2023/11/26 18:24:48;;;;;;;6.77;4.40;;;;;;;;;;4926153;29;20565;-85
2023/11/26 18:27:52;;;;;;;7.47;4.17;;;;;;;;;;4925303;29;20534;-85
2023/11/26 18:30:57;;;;;;;7.57;4.70;;;;;;;;;;4925107;29;20624;-88
2023/11/26 18:34:01;;;;;;;7.17;4.67;;;;;;;;;;4937322;29;20557;-87